createdAt,value
2022-08-19T00:02:08.755Z,89.60
2022-08-19T00:04:37.571Z,90.47
2022-08-19T00:07:06.029Z,90.24
2022-08-19T00:09:34.342Z,90.29
2022-08-19T00:12:01.898Z,89.93
2022-08-19T00:14:32.675Z,90.06
2022-08-19T00:17:00.447Z,90.06
2022-08-19T00:19:27.826Z,90.30
2022-08-19T00:21:55.444Z,90.02
2022-08-19T00:24:23.640Z,89.94
2022-08-19T00:26:51.395Z,90.19
2022-08-19T00:29:20.137Z,90.41
2022-08-19T00:31:47.679Z,90.26
2022-08-19T00:34:15.273Z,90.28
2022-08-19T00:36:42.786Z,90.77
2022-08-19T00:39:10.147Z,90.76
2022-08-19T00:41:38.722Z,90.65
2022-08-19T00:44:28.645Z,90.56
2022-08-19T00:46:58.084Z,90.37
2022-08-19T00:49:37.904Z,90.73
2022-08-19T00:52:09.856Z,91.19
2022-08-19T00:54:37.921Z,91.04
2022-08-19T00:57:07.731Z,90.57
2022-08-19T01:00:01.091Z,90.90
2022-08-19T01:02:24.354Z,91.16
2022-08-19T01:04:51.808Z,91.06
2022-08-19T01:07:19.638Z,91.02
2022-08-19T01:09:48.174Z,90.95
2022-08-19T01:12:15.501Z,90.86
2022-08-19T01:14:42.842Z,90.99
2022-08-19T01:17:10.570Z,90.95
2022-08-19T01:19:43.656Z,90.79
2022-08-19T01:22:20.058Z,91.28
2022-08-19T01:24:52.781Z,91.42
2022-08-19T01:27:22.562Z,91.54
2022-08-19T01:29:49.907Z,91.71
2022-08-19T01:32:32.351Z,91.41
2022-08-19T01:35:04.534Z,91.78
2022-08-19T01:37:42.280Z,91.84
2022-08-19T01:40:10.816Z,91.44
2022-08-19T01:42:38.937Z,91.43
2022-08-19T01:45:07.222Z,91.16
2022-08-19T01:47:36.591Z,91.73
2022-08-19T01:50:06.022Z,91.74
2022-08-19T01:52:36.760Z,92.40
2022-08-19T01:55:05.511Z,91.69
2022-08-19T01:57:32.954Z,91.26
2022-08-19T02:00:00.804Z,91.33
2022-08-19T02:02:28.376Z,91.25
2022-08-19T02:04:55.634Z,91.20
2022-08-19T02:07:22.905Z,91.54
2022-08-19T02:09:50.186Z,91.58
2022-08-19T02:12:17.667Z,91.67
2022-08-19T02:14:45.125Z,92.14
2022-08-19T02:17:12.481Z,92.23
2022-08-19T02:19:41.101Z,91.79
2022-08-19T02:22:08.427Z,92.10
2022-08-19T02:24:35.761Z,92.19
2022-08-19T02:27:03.085Z,92.00
2022-08-19T02:29:30.623Z,91.48
2022-08-19T02:31:57.985Z,91.53
2022-08-19T02:34:25.979Z,91.83
2022-08-19T02:36:53.308Z,91.79
2022-08-19T02:39:20.573Z,91.61
2022-08-19T02:41:47.995Z,91.58
2022-08-19T02:44:28.766Z,91.61
2022-08-19T02:46:58.149Z,91.84
2022-08-19T02:49:25.499Z,91.35
2022-08-19T02:51:52.820Z,91.64
2022-08-19T02:54:20.175Z,92.01
2022-08-19T02:56:47.618Z,91.58
2022-08-19T02:59:14.906Z,91.42
2022-08-19T03:01:43.023Z,90.92
2022-08-19T03:04:11.805Z,91.53
2022-08-19T03:06:42.249Z,92.23
2022-08-19T03:09:09.765Z,91.77
2022-08-19T03:11:37.674Z,91.12
2022-08-19T03:14:05.373Z,90.83
2022-08-19T03:16:34.094Z,90.77
2022-08-19T03:19:01.872Z,90.82
2022-08-19T03:21:32.030Z,89.97
2022-08-19T03:24:01.464Z,90.28
2022-08-19T03:26:29.004Z,90.03
2022-08-19T03:28:58.624Z,90.31
2022-08-19T03:31:44.191Z,89.53
2022-08-19T03:34:16.004Z,89.86
2022-08-19T03:36:43.306Z,89.98
2022-08-19T03:39:10.623Z,90.30
2022-08-19T03:41:44.656Z,90.95
2022-08-19T03:44:21.841Z,90.61
2022-08-19T03:46:53.895Z,90.97
2022-08-19T03:49:21.465Z,91.90
2022-08-19T03:51:55.101Z,91.81
2022-08-19T03:54:24.005Z,91.75
2022-08-19T03:56:52.722Z,92.22
2022-08-19T03:59:31.631Z,92.03
2022-08-19T04:02:00.930Z,91.41
2022-08-19T04:04:29.238Z,92.43
2022-08-19T04:06:57.221Z,92.79
2022-08-19T04:09:24.635Z,92.88
2022-08-19T04:11:54.886Z,92.73
2022-08-19T04:14:25.061Z,92.99
2022-08-19T04:16:52.557Z,93.08
2022-08-19T04:19:20.004Z,92.58
2022-08-19T04:21:50.908Z,92.49
2022-08-19T04:24:18.427Z,92.50
2022-08-19T04:26:45.768Z,92.59
2022-08-19T04:29:19.604Z,92.37
2022-08-19T04:31:46.956Z,92.10
2022-08-19T04:34:15.384Z,92.09
2022-08-19T04:36:43.475Z,91.97
2022-08-19T04:39:12.866Z,92.63
2022-08-19T04:41:59.505Z,91.97
2022-08-19T04:44:26.832Z,92.28
2022-08-19T04:46:54.254Z,91.63
2022-08-19T04:49:23.276Z,91.58
2022-08-19T04:51:51.432Z,90.66
2022-08-19T04:54:37.168Z,91.48
2022-08-19T04:57:10.953Z,91.02
2022-08-19T04:59:38.932Z,91.21
2022-08-19T05:02:06.794Z,89.97
2022-08-19T05:04:34.682Z,87.99
2022-08-19T05:07:02.483Z,87.79
2022-08-19T05:09:55.464Z,87.45
2022-08-19T05:12:18.367Z,87.19
2022-08-19T05:14:50.393Z,87.32
2022-08-19T05:17:27.579Z,87.51
2022-08-19T05:20:14.695Z,87.81
2022-08-19T05:22:42.951Z,86.42
2022-08-19T05:25:13.865Z,85.86
2022-08-19T05:27:42.276Z,83.97
2022-08-19T05:30:10.592Z,85.46
2022-08-19T05:32:38.656Z,83.48
2022-08-19T05:35:06.518Z,83.86
2022-08-19T05:37:34.115Z,83.15
2022-08-19T05:40:01.666Z,82.21
2022-08-19T05:42:29.347Z,81.73
2022-08-19T05:44:57.701Z,80.43
2022-08-19T05:47:25.005Z,78.48
2022-08-19T05:49:52.490Z,78.65
2022-08-19T05:52:25.751Z,78.20
2022-08-19T05:54:56.141Z,78.90
2022-08-19T05:57:24.860Z,79.37
2022-08-19T05:59:58.056Z,79.78
2022-08-19T06:02:27.541Z,79.51
2022-08-19T06:04:54.953Z,78.60
2022-08-19T06:07:22.276Z,78.55
2022-08-19T06:10:00.386Z,78.44
2022-08-19T06:12:29.823Z,78.59
2022-08-19T06:15:01.576Z,78.67
2022-08-19T06:17:31.746Z,78.33
2022-08-19T06:19:59.975Z,77.07
2022-08-19T06:22:27.768Z,76.74
2022-08-19T06:24:55.659Z,75.68
2022-08-19T06:27:22.951Z,76.18
2022-08-19T06:29:50.483Z,77.11
2022-08-19T06:32:18.706Z,75.60
2022-08-19T06:34:46.003Z,74.20
2022-08-19T06:37:13.373Z,75.01
2022-08-19T06:39:41.828Z,74.54
2022-08-19T06:42:12.387Z,74.13
2022-08-19T06:44:43.173Z,73.17
2022-08-19T06:47:14.752Z,72.58
2022-08-19T06:49:50.326Z,71.79
2022-08-19T06:52:17.800Z,71.44
2022-08-19T06:54:55.783Z,71.31
2022-08-19T06:57:24.949Z,71.56
2022-08-19T06:59:52.571Z,70.61
2022-08-19T07:02:20.076Z,71.55
2022-08-19T07:04:47.412Z,70.44
2022-08-19T07:07:19.977Z,71.68
2022-08-19T07:09:58.475Z,69.00
2022-08-19T07:12:30.640Z,65.02
2022-08-19T07:14:58.990Z,67.53
2022-08-19T07:17:26.967Z,68.74
2022-08-19T07:19:54.867Z,69.24
2022-08-19T07:22:23.772Z,67.58
2022-08-19T07:24:54.858Z,67.27
2022-08-19T07:27:24.727Z,66.90
2022-08-19T07:29:55.749Z,64.46
2022-08-19T07:32:24.474Z,64.13
2022-08-19T07:34:53.559Z,63.71
2022-08-19T07:37:21.030Z,61.98
2022-08-19T07:39:48.580Z,61.92
2022-08-19T07:42:16.184Z,62.71
2022-08-19T07:44:50.344Z,60.17
2022-08-19T07:47:48.734Z,60.88
2022-08-19T07:50:08.287Z,62.20
2022-08-19T07:52:39.192Z,60.30
2022-08-19T07:55:07.751Z,58.92
2022-08-19T07:57:55.553Z,61.49
2022-08-19T08:00:24.238Z,61.21
2022-08-19T08:02:55.764Z,58.95
2022-08-19T08:05:43.961Z,62.03
2022-08-19T08:08:27.613Z,60.78
2022-08-19T08:10:56.900Z,61.75
2022-08-19T08:13:25.519Z,59.57
2022-08-19T08:15:55.901Z,58.41
2022-08-19T08:18:27.692Z,57.84
2022-08-19T08:20:56.381Z,55.61
2022-08-19T08:23:26.002Z,57.66
2022-08-19T08:25:55.633Z,53.07
2022-08-19T08:28:24.119Z,52.80
2022-08-19T08:30:51.422Z,52.98
2022-08-19T08:33:33.322Z,50.55
2022-08-19T08:36:05.255Z,50.31
2022-08-19T08:38:38.927Z,52.75
2022-08-19T08:41:20.085Z,50.65
2022-08-19T08:43:49.445Z,47.66
2022-08-19T08:46:31.024Z,48.57
2022-08-19T08:49:02.794Z,48.19
2022-08-19T08:51:38.277Z,48.66
2022-08-19T08:54:07.715Z,49.70
2022-08-19T08:56:39.986Z,44.75
2022-08-19T08:59:11.367Z,46.17
2022-08-19T09:01:39.440Z,42.25
2022-08-19T09:04:07.886Z,42.76
2022-08-19T09:07:18.643Z,41.91
2022-08-19T09:10:15.753Z,41.50
2022-08-19T09:13:09.390Z,42.77
2022-08-19T09:15:45.841Z,42.99
2022-08-19T09:18:19.390Z,41.40
2022-08-19T09:20:48.499Z,37.78
2022-08-19T09:23:16.214Z,37.00
2022-08-19T09:25:43.602Z,35.87
2022-08-19T09:28:22.059Z,35.33
2022-08-19T09:30:50.172Z,35.49
2022-08-19T09:33:20.789Z,35.43
2022-08-19T09:35:50.175Z,34.86
2022-08-19T09:38:22.254Z,33.29
2022-08-19T09:40:50.531Z,33.44
2022-08-19T09:43:33.096Z,30.82
2022-08-19T09:46:02.228Z,30.65
2022-08-19T09:48:29.740Z,31.33
2022-08-19T09:51:04.288Z,30.96
2022-08-19T09:53:32.662Z,30.47
2022-08-19T09:56:04.206Z,28.29
2022-08-19T09:58:32.162Z,28.12
2022-08-19T10:00:59.759Z,27.94
2022-08-19T10:03:30.092Z,27.05
2022-08-19T10:05:58.981Z,26.54
2022-08-19T10:08:29.610Z,27.01
2022-08-19T10:10:57.092Z,28.42
2022-08-19T10:13:27.861Z,27.60
2022-08-19T10:15:56.943Z,27.29
2022-08-19T10:18:25.442Z,26.50
2022-08-19T10:21:23.826Z,27.70
2022-08-19T10:23:54.189Z,29.34
2022-08-19T10:26:23.849Z,27.65
2022-08-19T10:28:54.117Z,27.10
2022-08-19T10:32:00.677Z,27.84
2022-08-19T10:34:22.056Z,28.64
2022-08-19T10:36:56.433Z,27.54
2022-08-19T10:39:30.704Z,26.17
2022-08-19T10:41:58.233Z,27.01
2022-08-19T10:44:31.981Z,26.67
2022-08-19T10:47:00.204Z,26.65
2022-08-19T10:49:28.148Z,26.28
2022-08-19T10:52:18.945Z,27.67
2022-08-19T10:55:08.286Z,28.12
2022-08-19T10:57:59.290Z,28.41
2022-08-19T11:00:24.157Z,27.53
2022-08-19T11:02:52.049Z,29.10
2022-08-19T11:05:19.669Z,30.49
2022-08-19T11:07:47.160Z,32.67
2022-08-19T11:10:20.872Z,34.10
2022-08-19T11:12:49.285Z,32.87
2022-08-19T11:15:16.709Z,29.86
2022-08-19T11:17:44.798Z,28.47
2022-08-19T11:20:13.222Z,29.92
2022-08-19T11:22:41.802Z,31.62
2022-08-19T11:25:10.405Z,35.37
2022-08-19T11:27:43.622Z,35.30
2022-08-19T11:30:13.219Z,38.58
2022-08-19T11:32:45.903Z,38.21
2022-08-19T11:35:17.106Z,38.37
2022-08-19T11:37:44.538Z,38.52
2022-08-19T11:40:12.962Z,40.31
2022-08-19T11:42:58.502Z,41.71
2022-08-19T11:45:27.063Z,42.99
2022-08-19T11:47:54.583Z,44.25
2022-08-19T11:50:22.026Z,43.29
2022-08-19T11:52:50.681Z,44.61
2022-08-19T11:55:17.974Z,44.83
2022-08-19T11:57:45.384Z,44.12
2022-08-19T12:00:14.160Z,42.56
2022-08-19T12:02:41.965Z,43.12
2022-08-19T12:05:12.614Z,45.60
2022-08-19T12:07:42.469Z,43.23
2022-08-19T12:10:10.807Z,45.80
2022-08-19T12:12:43.628Z,44.95
2022-08-19T12:15:11.900Z,45.88
2022-08-19T12:17:39.427Z,47.61
2022-08-19T12:20:08.039Z,48.06
2022-08-19T12:22:36.824Z,48.95
2022-08-19T12:25:05.142Z,48.59
2022-08-19T12:27:40.192Z,50.89
2022-08-19T12:30:09.421Z,46.20
2022-08-19T12:32:37.032Z,49.99
2022-08-19T12:35:05.080Z,48.43
2022-08-19T12:37:33.311Z,49.80
2022-08-19T12:40:00.702Z,52.58
2022-08-19T12:42:28.183Z,53.95
2022-08-19T12:44:55.831Z,53.70
2022-08-19T12:47:23.709Z,55.86
2022-08-19T12:49:55.513Z,55.40
2022-08-19T12:52:24.865Z,54.66
2022-08-19T12:54:54.644Z,57.02
2022-08-19T12:57:32.659Z,56.91
2022-08-19T13:00:13.087Z,56.41
2022-08-19T13:02:41.723Z,56.52
2022-08-19T13:05:09.920Z,56.42
2022-08-19T13:07:39.663Z,56.85
2022-08-19T13:10:08.360Z,56.63
2022-08-19T13:12:36.123Z,57.49
2022-08-19T13:15:03.789Z,55.17
2022-08-19T13:17:39.573Z,56.01
2022-08-19T13:20:11.343Z,55.75
2022-08-19T13:22:39.361Z,57.27
2022-08-19T13:25:07.637Z,55.88
2022-08-19T13:27:36.456Z,56.70
2022-08-19T13:30:22.789Z,57.58
2022-08-19T13:33:08.691Z,57.47
2022-08-19T13:35:36.030Z,57.75
2022-08-19T13:38:05.783Z,59.07
2022-08-19T13:40:38.085Z,58.21
2022-08-19T13:43:13.711Z,58.42
2022-08-19T13:45:52.327Z,59.06
2022-08-19T13:48:19.763Z,59.60
2022-08-19T13:50:48.354Z,59.12
2022-08-19T13:53:15.894Z,58.68
2022-08-19T13:55:44.079Z,58.23
2022-08-19T13:58:11.735Z,59.77
2022-08-19T14:00:46.031Z,59.83
2022-08-19T14:03:13.407Z,59.66
2022-08-19T14:05:42.256Z,60.05
2022-08-19T14:08:10.305Z,59.90
2022-08-19T14:10:37.827Z,62.29
2022-08-19T14:13:05.218Z,63.75
2022-08-19T14:15:32.810Z,64.55
2022-08-19T14:18:00.493Z,63.72
2022-08-19T14:20:27.982Z,60.82
2022-08-19T14:22:55.753Z,61.44
2022-08-19T14:25:26.300Z,59.86
2022-08-19T14:27:53.866Z,59.18
2022-08-19T14:30:23.759Z,59.24
2022-08-19T14:32:51.048Z,59.13
2022-08-19T14:35:19.083Z,60.48
2022-08-19T14:37:46.459Z,57.00
2022-08-19T14:40:15.241Z,57.67
2022-08-19T14:42:42.983Z,58.28
2022-08-19T14:45:11.085Z,57.22
2022-08-19T14:47:39.762Z,58.76
2022-08-19T14:50:11.354Z,58.71
2022-08-19T14:52:47.424Z,62.97
2022-08-19T14:55:15.595Z,63.10
2022-08-19T14:57:43.286Z,61.42
2022-08-19T15:00:14.164Z,60.88
2022-08-19T15:02:42.632Z,62.14
2022-08-19T15:05:10.132Z,59.74
2022-08-19T15:07:39.794Z,60.43
2022-08-19T15:10:08.320Z,59.39
2022-08-19T15:12:36.009Z,60.07
2022-08-19T15:15:03.574Z,60.04
2022-08-19T15:17:45.164Z,56.98
2022-08-19T15:20:16.667Z,61.10
2022-08-19T15:22:44.038Z,60.37
2022-08-19T15:25:12.375Z,59.81
2022-08-19T15:27:40.659Z,57.71
2022-08-19T15:30:09.362Z,58.82
2022-08-19T15:32:37.466Z,57.28
2022-08-19T15:35:06.086Z,55.51
2022-08-19T15:37:36.954Z,55.39
2022-08-19T15:40:06.421Z,53.85
2022-08-19T15:42:34.060Z,54.45
2022-08-19T15:45:02.524Z,55.03
2022-08-19T15:47:34.576Z,55.86
2022-08-19T15:50:11.536Z,58.13
2022-08-19T15:53:00.969Z,60.50
2022-08-19T15:55:33.582Z,64.96
2022-08-19T15:58:29.836Z,67.08
2022-08-19T16:01:21.322Z,70.89
2022-08-19T16:04:10.994Z,71.57
2022-08-19T16:06:52.963Z,71.21
2022-08-19T16:09:26.421Z,71.33
2022-08-19T16:12:02.768Z,72.47
2022-08-19T16:14:35.314Z,72.52
2022-08-19T16:17:02.759Z,70.24
2022-08-19T16:19:31.062Z,71.38
2022-08-19T16:21:58.315Z,70.37
2022-08-19T16:24:26.983Z,70.24
2022-08-19T16:26:54.596Z,70.61
2022-08-19T16:29:34.058Z,69.71
2022-08-19T16:32:10.047Z,70.27
2022-08-19T16:34:38.866Z,70.57
2022-08-19T16:37:06.424Z,71.04
2022-08-19T16:39:34.067Z,70.00
2022-08-19T16:42:01.489Z,70.50
2022-08-19T16:44:29.581Z,70.19
2022-08-19T16:46:59.679Z,70.87
2022-08-19T16:49:52.386Z,70.57
2022-08-19T16:52:16.233Z,71.57
2022-08-19T16:54:44.638Z,72.42
2022-08-19T16:57:12.434Z,72.76
2022-08-19T16:59:48.228Z,72.78
2022-08-19T17:02:22.091Z,72.26
2022-08-19T17:04:57.810Z,71.66
2022-08-19T17:07:29.444Z,71.92
2022-08-19T17:10:01.033Z,71.76
2022-08-19T17:12:31.783Z,71.89
2022-08-19T17:15:01.011Z,71.97
2022-08-19T17:17:29.804Z,71.94
2022-08-19T17:20:00.701Z,72.24
2022-08-19T17:22:28.103Z,71.94
2022-08-19T17:24:56.259Z,73.13
2022-08-19T17:27:31.374Z,72.39
2022-08-19T17:30:02.485Z,73.12
2022-08-19T17:32:33.266Z,73.36
2022-08-19T17:35:00.785Z,73.55
2022-08-19T17:37:28.281Z,74.16
2022-08-19T17:39:55.710Z,74.50
2022-08-19T17:42:23.009Z,75.04
2022-08-19T17:44:50.794Z,74.87
2022-08-19T17:47:19.395Z,75.36
2022-08-19T17:49:46.836Z,74.79
2022-08-19T17:52:14.215Z,75.38
2022-08-19T17:54:41.565Z,75.57
2022-08-19T17:57:09.622Z,73.87
2022-08-19T17:59:39.791Z,73.05
2022-08-19T18:02:07.830Z,73.19
2022-08-19T18:04:38.501Z,74.49
2022-08-19T18:07:06.317Z,75.48
2022-08-19T18:09:41.807Z,77.82
2022-08-19T18:12:14.045Z,79.53
2022-08-19T18:14:41.639Z,79.99
2022-08-19T18:17:11.618Z,80.08
2022-08-19T18:19:42.695Z,80.54
2022-08-19T18:22:12.743Z,81.00
2022-08-19T18:24:41.082Z,81.55
2022-08-19T18:27:08.786Z,82.09
2022-08-19T18:29:38.134Z,82.61
2022-08-19T18:32:06.937Z,82.78
2022-08-19T18:34:36.461Z,83.43
2022-08-19T18:37:04.149Z,83.50
2022-08-19T18:39:50.189Z,83.20
2022-08-19T18:42:36.593Z,83.62
2022-08-19T18:45:23.377Z,83.79
2022-08-19T18:48:18.430Z,83.92
2022-08-19T18:50:59.113Z,85.51
2022-08-19T18:53:28.141Z,86.26
2022-08-19T18:55:55.884Z,87.62
2022-08-19T18:58:34.833Z,87.48
2022-08-19T19:01:11.320Z,87.07
2022-08-19T19:03:42.576Z,86.99
2022-08-19T19:06:10.238Z,87.16
2022-08-19T19:08:38.979Z,87.23
2022-08-19T19:11:08.661Z,87.04
2022-08-19T19:13:37.059Z,86.77
2022-08-19T19:16:04.575Z,85.91
2022-08-19T19:18:33.388Z,85.45
2022-08-19T19:21:00.686Z,85.13
2022-08-19T19:23:28.557Z,85.36
2022-08-19T19:25:55.885Z,84.16
2022-08-19T19:28:28.744Z,83.10
2022-08-19T19:30:59.777Z,84.01
2022-08-19T19:33:27.577Z,84.30
2022-08-19T19:35:55.149Z,83.79
2022-08-19T19:38:22.498Z,83.18
2022-08-19T19:40:49.744Z,84.07
2022-08-19T19:43:18.442Z,83.94
2022-08-19T19:45:46.531Z,84.07
2022-08-19T19:48:14.965Z,84.11
2022-08-19T19:50:46.670Z,84.05
2022-08-19T19:53:23.395Z,84.26
2022-08-19T19:55:58.631Z,83.64
2022-08-19T19:58:28.733Z,83.64
2022-08-19T20:00:58.081Z,84.48
2022-08-19T20:03:26.578Z,84.76
2022-08-19T20:05:54.907Z,84.29
2022-08-19T20:08:40.793Z,83.83
2022-08-19T20:11:08.187Z,83.84
2022-08-19T20:13:35.567Z,83.75
2022-08-19T20:16:03.882Z,84.09
2022-08-19T20:18:31.677Z,84.39
2022-08-19T20:21:00.447Z,84.71
2022-08-19T20:23:27.771Z,85.28
2022-08-19T20:25:55.063Z,86.17
2022-08-19T20:28:22.727Z,87.09
2022-08-19T20:30:50.577Z,86.91
2022-08-19T20:33:18.027Z,86.66
2022-08-19T20:35:46.236Z,86.52
2022-08-19T20:38:13.653Z,87.01
2022-08-19T20:40:41.309Z,86.80
2022-08-19T20:43:12.958Z,86.29
2022-08-19T20:45:40.368Z,86.71
2022-08-19T20:48:08.144Z,86.77
2022-08-19T20:50:35.994Z,86.94
2022-08-19T20:53:14.851Z,86.82
2022-08-19T20:55:46.731Z,86.61
2022-08-19T20:58:14.037Z,86.03
2022-08-19T21:00:43.861Z,85.71
2022-08-19T21:03:12.377Z,85.64
2022-08-19T21:05:40.131Z,85.26
2022-08-19T21:08:09.108Z,85.09
2022-08-19T21:10:40.493Z,85.38
2022-08-19T21:13:09.803Z,85.21
2022-08-19T21:15:40.681Z,85.46
2022-08-19T21:18:08.355Z,85.46
2022-08-19T21:20:35.727Z,85.27
2022-08-19T21:23:04.703Z,85.13
2022-08-19T21:25:32.186Z,85.53
2022-08-19T21:27:59.607Z,85.18
2022-08-19T21:30:27.246Z,85.00
2022-08-19T21:32:55.036Z,84.70
2022-08-19T21:35:23.704Z,84.91
2022-08-19T21:37:51.166Z,85.09
2022-08-19T21:40:18.753Z,84.94
2022-08-19T21:42:46.175Z,85.25
2022-08-19T21:45:14.151Z,85.12
2022-08-19T21:47:41.409Z,85.20
2022-08-19T21:50:09.672Z,85.34
2022-08-19T21:52:36.946Z,85.43
2022-08-19T21:55:05.272Z,85.42
2022-08-19T21:57:33.031Z,85.46
2022-08-19T22:00:01.488Z,85.49
2022-08-19T22:02:29.087Z,85.37
2022-08-19T22:04:56.382Z,85.71
2022-08-19T22:07:23.904Z,86.57
2022-08-19T22:09:51.673Z,86.75
2022-08-19T22:12:28.209Z,87.05
2022-08-19T22:14:55.671Z,86.86
2022-08-19T22:17:23.088Z,86.71
2022-08-19T22:19:52.450Z,86.55
2022-08-19T22:22:24.316Z,86.75
2022-08-19T22:24:52.675Z,86.81
2022-08-19T22:27:20.274Z,87.13
2022-08-19T22:29:47.775Z,87.39
2022-08-19T22:32:27.973Z,87.35
2022-08-19T22:35:00.596Z,87.34
2022-08-19T22:37:28.880Z,87.94
2022-08-19T22:39:56.245Z,88.22
2022-08-19T22:42:24.810Z,88.38
2022-08-19T22:44:57.314Z,88.66
2022-08-19T22:47:26.010Z,88.85
2022-08-19T22:49:57.633Z,88.73
2022-08-19T22:52:25.546Z,89.00
2022-08-19T22:54:54.981Z,88.98
2022-08-19T22:57:22.629Z,89.04
2022-08-19T22:59:51.261Z,89.41
2022-08-19T23:02:23.537Z,89.71
2022-08-19T23:04:51.294Z,89.80
2022-08-19T23:07:19.074Z,89.90
2022-08-19T23:09:51.334Z,89.34
2022-08-19T23:12:30.620Z,89.64
2022-08-19T23:15:06.572Z,89.64
2022-08-19T23:17:35.337Z,89.86
2022-08-19T23:20:03.726Z,89.37
2022-08-19T23:22:31.402Z,89.69
2022-08-19T23:25:06.247Z,89.04
2022-08-19T23:27:52.400Z,88.60
2022-08-19T23:30:28.608Z,88.54
2022-08-19T23:33:12.690Z,87.99
2022-08-19T23:35:41.156Z,88.23
2022-08-19T23:38:08.893Z,88.73
2022-08-19T23:40:36.784Z,88.58
2022-08-19T23:43:07.898Z,88.36
2022-08-19T23:45:40.141Z,88.18
2022-08-19T23:48:08.504Z,88.22
2022-08-19T23:50:37.509Z,88.60
2022-08-19T23:53:04.894Z,88.54
2022-08-19T23:55:35.370Z,89.00
2022-08-19T23:58:02.865Z,89.00
